< < Back
Terminal Aerodrome Forecast


Current Version              Previous Versions:   1  2  3  4  5  6  7  8  9  

Terminal Aerodrome Forecast

221
FTUS42 KTAE 311729
TAFTLH
TAF
KTLH 311729Z 3118/0118 06007KT P6SM SCT030
     FM010000 08004KT P6SM FEW040 SCT250
     FM011500 08007KT P6SM VCSH BKN040=



Latest METAR

643
SAUS80 KWBC 311700
MTRTLH
METAR KTLH 311653Z 05007KT 10SM SCT025 31/23 A3008 RMK AO2 SLP183
T03110228


USA.gov is the U.S. government's official web portal to all federal, state and local government web resources and services.